createdAt,value
2023-05-25T18:07:02.670Z,8.18
2023-05-25T18:09:30.561Z,4.13
2023-05-25T18:11:58.532Z,7.88
2023-05-25T18:14:26.686Z,3.90
2023-05-25T18:16:54.637Z,4.65
2023-05-25T18:19:22.555Z,9.70
2023-05-25T18:21:50.465Z,9.00
2023-05-25T18:24:19.724Z,2.78
2023-05-25T18:26:47.655Z,6.70
2023-05-25T18:29:16.367Z,4.93
2023-05-25T18:31:47.177Z,5.70
2023-05-25T18:34:15.947Z,6.25
2023-05-25T18:36:43.878Z,7.72
2023-05-25T18:39:12.156Z,9.32
2023-05-25T18:41:42.489Z,11.32
2023-05-25T18:44:10.445Z,9.60
2023-05-25T18:46:40.213Z,11.80
2023-05-25T18:49:08.152Z,11.20
2023-05-25T18:51:36.802Z,15.52
2023-05-25T18:54:04.930Z,15.00
2023-05-25T18:56:32.819Z,14.43
2023-05-25T18:59:02.090Z,15.18
2023-05-25T19:01:30.108Z,16.55
2023-05-25T19:03:58.685Z,19.27
2023-05-25T19:06:27.245Z,19.58
2023-05-25T19:08:55.371Z,19.60
2023-05-25T19:11:23.316Z,18.38
2023-05-25T19:13:51.212Z,23.85
2023-05-25T19:16:20.586Z,25.40
2023-05-25T19:18:48.557Z,19.20
2023-05-25T19:21:16.536Z,24.35
2023-05-25T19:23:44.949Z,23.98
2023-05-25T19:26:12.897Z,25.55
2023-05-25T19:28:40.784Z,24.23
2023-05-25T19:31:08.722Z,23.90
2023-05-25T19:33:38.093Z,28.48
2023-05-25T19:36:06.235Z,18.88
2023-05-25T19:38:41.285Z,25.30
2023-05-25T19:41:10.060Z,27.27
2023-05-25T19:43:38.358Z,28.50
2023-05-25T19:46:06.462Z,26.40
2023-05-25T19:48:34.399Z,29.13
2023-05-25T19:51:03.633Z,29.63
2023-05-25T19:53:31.586Z,27.42
2023-05-25T19:55:59.678Z,33.70
2023-05-25T19:58:27.587Z,27.20
2023-05-25T20:00:55.595Z,27.70
2023-05-25T20:03:23.728Z,31.45
2023-05-25T20:05:51.659Z,30.70
2023-05-25T20:08:20.951Z,27.88
2023-05-25T20:10:48.968Z,36.92
2023-05-25T20:13:17.091Z,33.47
2023-05-25T20:15:45.255Z,37.33
2023-05-25T20:18:13.311Z,29.08
2023-05-25T20:20:41.272Z,31.40
2023-05-25T20:23:09.701Z,28.55
2023-05-25T20:25:38.936Z,34.53
2023-05-25T20:28:06.876Z,32.28
2023-05-25T20:30:34.908Z,30.23
2023-05-25T20:33:03.012Z,30.33
2023-05-25T20:35:31.332Z,36.00
2023-05-25T20:37:59.254Z,31.75
2023-05-25T20:40:27.432Z,27.27
2023-05-25T20:42:57.435Z,30.63
2023-05-25T20:45:25.348Z,33.05
2023-05-25T20:48:00.673Z,29.95
2023-05-25T20:50:28.644Z,31.42
2023-05-25T20:52:56.722Z,33.25
2023-05-25T20:55:24.634Z,28.27
2023-05-25T20:57:52.527Z,32.03
2023-05-25T21:00:23.637Z,31.23
2023-05-25T21:02:51.578Z,30.13
2023-05-25T21:05:19.534Z,31.73
2023-05-25T21:07:47.420Z,28.52
